Florence Regional Airport
KFLO : rendu visible

Aérodrome :











RETROUVEZ-NOUS SUR...

 
LOGIN :

S'inscrire | Disclaimer

   EN    FR    IT 

 









Légende :    VFR   VFR Marginal   IFR   IFR Intensif   IFR Très Intensif
Visi : 
Plafond : 
>= 8 km
>= 3000ft
5 à 8 km
1000 à 3000 ft
1500m à 5 km
500 à 1000 ft
800 à 1500m
200 à 500 ft
< 800m
< 200 ft
Symboles :   Orages  Brouillard  Fortes neiges  Fortes précipitations  Vent > 20 kt






- Altitude de l'aérodrome : 146 ft
- Code IATA : FLO


KFLO - Florence Regional

DERNIER METAR :
  • 191503Z 00000KT 10SM BKN025 BKN110 11/08 A2986 RMK AO2 T01060078

METARs EXPIRÉS :
  • 191453Z 00000KT 10SM SCT025 BKN110 11/08 A2986 RMK AO2 SLP110 T01060083 50002
  • 191433Z 10007KT 6SM BR FEW002 SCT025 BKN110 09/08 A2984 RMK AO2 T00940078
  • 191417Z 09005KT 6SM BR FEW003 BKN025 09/07 A2985 RMK AO2 T00890072 $
  • 191400Z 7SM A2986 RMK AO2 $
  • 191353Z 00000KT 7SM BKN002 OVC026 A2986 RMK AO2 SLPNO $
  • 191259Z 00000KT 5SM BR BKN002 OVC026 07/06 A2985 RMK AO2 T00670061
  • 191253Z 00000KT 2SM BR FEW002 OVC026 07/06 A2986 RMK AO2 SLP108 T00670061
  • 191227Z 00000KT 2SM BR SCT001 OVC026 06/06 A2986 RMK AO2 T00610056

TAF KFLO
Valide du 19 à 15h jusqu'au 20 à 12h UTC


191433Z 1915/2012 09005KT 6SM BR FEW003 BKN025
FM192000 29004KT P6SM SCT250



MET'MAP, la Météo Aéronautique d'un coup d'oeil ! - Copyright ORBIFLY Décembre 2007 - Disclaimer

ORBIFLY MET'MAP TEAM :

Programmation & Développement : Alexandra Zaïnal
Conception & Développement : Baudouin d'Aumeries
Co-Programmation & Développement : Marc-Olivier Méhu
Soutien technique & logistique : Manuel Goepfert

Contact : metmap@orbifly.com




SOURCES & CREDITS :

   NOAA       Earth
Advisory